createdAt,value
2023-04-02T00:02:27.456Z,7.35
2023-04-02T00:07:33.876Z,8.02
2023-04-02T00:12:35.291Z,6.43
2023-04-02T00:17:36.767Z,8.07
2023-04-02T00:22:44.462Z,12.23
2023-04-02T00:27:46.249Z,12.45
2023-04-02T00:32:47.976Z,11.98
2023-04-02T00:37:50.197Z,11.75
2023-04-02T00:42:54.647Z,13.02
2023-04-02T00:47:58.624Z,12.02
2023-04-02T00:53:09.140Z,13.73
2023-04-02T00:58:32.852Z,13.13
2023-04-02T01:03:36.952Z,13.73
2023-04-02T01:09:01.002Z,11.68
2023-04-02T01:14:19.854Z,11.80
2023-04-02T01:20:00.953Z,11.73
2023-04-02T01:25:06.440Z,10.15
2023-04-02T01:30:11.944Z,9.52
2023-04-02T01:35:14.017Z,9.85
2023-04-02T01:40:37.799Z,10.57
2023-04-02T01:45:39.293Z,10.60
2023-04-02T01:50:42.624Z,13.40
2023-04-02T01:55:46.006Z,12.38
2023-04-02T02:01:00.133Z,12.27
2023-04-02T02:06:03.095Z,13.05
2023-04-02T02:11:05.729Z,9.27
2023-04-02T02:16:15.172Z,11.50
2023-04-02T02:21:28.921Z,11.98
2023-04-02T02:26:35.899Z,10.82
2023-04-02T02:31:41.813Z,11.32
2023-04-02T02:36:50.750Z,10.60
2023-04-02T02:42:02.530Z,9.80
2023-04-02T02:47:11.770Z,7.60
2023-04-02T02:52:24.786Z,8.02
2023-04-02T02:57:31.827Z,8.80
2023-04-02T03:02:38.551Z,8.45
2023-04-02T03:07:40.413Z,7.95
2023-04-02T03:13:12.949Z,8.98
2023-04-02T03:18:19.993Z,10.30
2023-04-02T03:23:32.560Z,10.50
2023-04-02T03:28:39.619Z,10.45
2023-04-02T03:33:50.426Z,10.07
2023-04-02T03:39:14.679Z,8.48
2023-04-02T03:44:23.839Z,9.73
2023-04-02T03:49:36.728Z,12.35
2023-04-02T03:54:39.565Z,12.18
2023-04-02T04:00:05.435Z,12.07
2023-04-02T04:05:26.327Z,10.68
2023-04-02T04:10:29.231Z,11.38
2023-04-02T04:15:41.906Z,9.70
2023-04-02T04:20:57.021Z,11.02
2023-04-02T04:26:19.797Z,10.95
2023-04-02T04:31:34.070Z,8.95
2023-04-02T04:36:53.833Z,9.32
2023-04-02T04:41:58.689Z,8.52
2023-04-02T04:47:07.327Z,7.13
2023-04-02T04:52:22.409Z,9.45
2023-04-02T04:57:39.864Z,7.65
2023-04-02T05:02:48.855Z,7.00
2023-04-02T05:07:59.863Z,5.78
2023-04-02T05:13:01.441Z,6.10
2023-04-02T05:18:44.986Z,4.88
2023-04-02T05:23:52.695Z,4.63
2023-04-02T05:29:09.193Z,3.72
2023-04-02T05:34:12.409Z,3.72
2023-04-02T05:39:22.603Z,2.60
2023-04-02T05:44:30.153Z,2.40
2023-04-02T05:49:48.662Z,2.60
2023-04-02T05:55:13.429Z,2.72
2023-04-02T06:00:25.466Z,2.38
2023-04-02T06:05:34.317Z,2.63
2023-04-02T06:10:47.435Z,2.55
2023-04-02T06:15:49.158Z,2.60
2023-04-02T06:20:51.080Z,2.10
2023-04-02T06:26:00.253Z,2.42
2023-04-02T06:31:09.567Z,2.10
2023-04-02T06:36:12.494Z,2.95
2023-04-02T06:41:23.234Z,2.78
2023-04-02T06:46:49.974Z,2.17
2023-04-02T06:51:54.794Z,2.63
2023-04-02T06:56:56.682Z,3.78
2023-04-02T07:02:03.684Z,2.88
2023-04-02T07:07:05.164Z,2.53
2023-04-02T07:12:23.695Z,2.47
2023-04-02T07:17:25.176Z,4.03
2023-04-02T07:22:26.896Z,2.97
2023-04-02T07:27:28.296Z,2.75
2023-04-02T07:32:29.785Z,2.70
2023-04-02T07:37:31.903Z,2.90
2023-04-02T07:42:33.318Z,2.97
2023-04-02T07:47:34.857Z,2.42
2023-04-02T07:52:42.746Z,2.75
2023-04-02T07:57:55.733Z,2.70
2023-04-02T08:02:57.328Z,3.88
2023-04-02T08:07:58.888Z,3.25
2023-04-02T08:13:00.353Z,2.75
2023-04-02T08:18:01.860Z,2.97
2023-04-02T08:23:03.853Z,2.88
2023-04-02T08:28:05.300Z,2.80
2023-04-02T08:33:07.199Z,3.80
2023-04-02T08:38:14.716Z,3.10
2023-04-02T08:43:48.770Z,2.90
2023-04-02T08:48:55.805Z,2.83
2023-04-02T08:54:03.422Z,2.78
2023-04-02T08:59:34.655Z,2.55
2023-04-02T09:04:36.979Z,3.00
2023-04-02T09:09:38.904Z,3.47
2023-04-02T09:14:50.292Z,3.05
2023-04-02T09:20:13.614Z,3.08
2023-04-02T09:25:21.041Z,2.40
2023-04-02T09:30:31.767Z,2.90
2023-04-02T09:35:55.048Z,3.20
2023-04-02T09:41:05.756Z,2.53
2023-04-02T09:46:13.178Z,2.10
2023-04-02T09:51:23.047Z,1.90
2023-04-02T09:56:26.984Z,1.50
2023-04-02T10:01:33.200Z,2.05
2023-04-02T10:06:35.200Z,1.83
2023-04-02T10:11:45.807Z,1.70
2023-04-02T10:16:58.390Z,1.38
2023-04-02T10:22:04.302Z,1.58
2023-04-02T10:27:37.562Z,1.87
2023-04-02T10:33:20.125Z,1.80
2023-04-02T10:38:32.320Z,2.00
2023-04-02T10:43:45.594Z,2.40
2023-04-02T10:48:54.784Z,2.03
2023-04-02T10:54:21.840Z,2.22
2023-04-02T10:59:32.063Z,1.92
2023-04-02T11:04:44.126Z,2.17
2023-04-02T11:09:50.793Z,2.47
2023-04-02T11:14:54.311Z,2.45
2023-04-02T11:20:34.205Z,2.30
2023-04-02T11:25:36.099Z,1.83
2023-04-02T11:30:37.764Z,2.28
2023-04-02T11:35:40.919Z,1.90
2023-04-02T11:40:45.374Z,2.53
2023-04-02T11:45:54.839Z,1.70
2023-04-02T11:50:57.148Z,1.67
2023-04-02T11:56:21.336Z,1.85
2023-04-02T12:02:14.197Z,2.22
2023-04-02T12:07:35.133Z,2.22
2023-04-02T12:12:38.672Z,1.83
2023-04-02T12:17:40.963Z,1.48
2023-04-02T12:22:52.057Z,2.40
2023-04-02T12:28:14.375Z,1.45
2023-04-02T12:33:17.147Z,1.55
2023-04-02T12:38:21.458Z,1.50
2023-04-02T12:43:27.761Z,1.98
2023-04-02T12:48:31.380Z,1.88
2023-04-02T12:53:36.892Z,1.70
2023-04-02T12:58:41.543Z,1.60
2023-04-02T13:03:43.973Z,1.92
2023-04-02T13:08:45.630Z,1.50
2023-04-02T13:13:51.695Z,1.25
2023-04-02T13:19:17.965Z,1.35
2023-04-02T13:24:22.066Z,1.58
2023-04-02T13:29:42.896Z,1.52
2023-04-02T13:34:44.444Z,1.33
2023-04-02T13:39:46.341Z,1.58
2023-04-02T13:44:47.961Z,1.75
2023-04-02T13:49:51.031Z,2.20
2023-04-02T13:54:56.101Z,1.63
2023-04-02T14:00:02.970Z,1.95
2023-04-02T14:05:23.203Z,1.70
2023-04-02T14:10:47.063Z,1.70
2023-04-02T14:16:17.623Z,1.50
2023-04-02T14:22:02.818Z,1.95
2023-04-02T14:27:24.268Z,1.52
2023-04-02T14:32:36.475Z,1.50
2023-04-02T14:38:15.496Z,1.50
2023-04-02T14:43:27.742Z,1.60
2023-04-02T14:48:41.414Z,1.40
2023-04-02T14:53:52.590Z,1.50
2023-04-02T14:59:32.699Z,1.67
2023-04-02T15:04:40.612Z,1.17
2023-04-02T15:09:56.992Z,1.90
2023-04-02T15:15:04.616Z,1.27
2023-04-02T15:20:15.908Z,2.03
2023-04-02T15:25:37.959Z,1.55
2023-04-02T15:30:44.009Z,1.10
2023-04-02T15:35:57.505Z,1.45
2023-04-02T15:41:04.088Z,1.27
2023-04-02T15:51:44.754Z,1.60
2023-04-02T15:57:10.005Z,1.53
2023-04-02T16:02:20.726Z,1.85
2023-04-02T16:07:32.299Z,1.55
2023-04-02T16:12:37.242Z,1.35
2023-04-02T16:17:45.689Z,1.50
2023-04-02T16:23:00.476Z,1.55
2023-04-02T16:28:23.794Z,1.52
2023-04-02T16:33:32.752Z,1.73
2023-04-02T16:38:56.698Z,1.50
2023-04-02T16:44:06.151Z,1.70
2023-04-02T16:49:13.545Z,3.05
2023-04-02T16:54:52.188Z,1.52
2023-04-02T17:00:03.897Z,1.60
2023-04-02T17:05:12.279Z,0.90
2023-04-02T17:10:40.977Z,2.00
2023-04-02T17:15:46.241Z,1.48
2023-04-02T17:20:48.640Z,1.42
2023-04-02T17:25:57.944Z,1.40
2023-04-02T17:31:01.332Z,2.35
2023-04-02T17:36:09.392Z,1.40
2023-04-02T17:41:46.393Z,1.50
2023-04-02T17:47:07.572Z,2.20
2023-04-02T17:52:18.089Z,3.00
2023-04-02T17:57:43.868Z,2.30
2023-04-02T18:02:51.469Z,1.75
2023-04-02T18:08:13.498Z,2.10
2023-04-02T18:13:41.104Z,1.38
2023-04-02T18:19:05.962Z,1.40
2023-04-02T18:24:19.932Z,1.23
2023-04-02T18:29:35.328Z,2.33
2023-04-02T18:34:58.050Z,1.40
2023-04-02T18:40:37.153Z,1.30
2023-04-02T18:45:44.180Z,1.70
2023-04-02T18:50:48.947Z,1.33
2023-04-02T18:55:56.552Z,1.30
2023-04-02T19:01:04.534Z,1.40
2023-04-02T19:06:12.865Z,1.40
2023-04-02T19:11:21.294Z,1.02
2023-04-02T19:16:55.810Z,1.10
2023-04-02T19:22:42.374Z,1.00
2023-04-02T19:28:08.733Z,1.15
2023-04-02T19:33:42.390Z,1.03
2023-04-02T19:38:50.488Z,1.10
2023-04-02T19:43:53.186Z,3.15
2023-04-02T19:49:26.836Z,1.13
2023-04-02T19:54:28.525Z,0.80
2023-04-02T19:59:30.397Z,1.35
2023-04-02T20:04:31.945Z,1.60
2023-04-02T20:09:33.472Z,1.20
2023-04-02T20:14:35.257Z,1.60
2023-04-02T20:19:36.882Z,1.50
2023-04-02T20:24:38.437Z,1.58
2023-04-02T20:29:42.289Z,1.60
2023-04-02T20:34:44.222Z,1.33
2023-04-02T20:39:48.758Z,1.63
2023-04-02T20:44:50.473Z,2.10
2023-04-02T20:49:53.360Z,1.88
2023-04-02T20:54:54.950Z,1.60
2023-04-02T20:59:56.415Z,1.42
2023-04-02T21:04:58.020Z,2.17
2023-04-02T21:10:02.633Z,1.95
2023-04-02T21:15:04.428Z,2.03
2023-04-02T21:20:06.711Z,1.60
2023-04-02T21:25:11.214Z,1.63
2023-04-02T21:30:15.924Z,2.80
2023-04-02T21:35:17.547Z,2.28
2023-04-02T21:40:25.177Z,1.95
2023-04-02T21:45:28.162Z,2.20
2023-04-02T21:50:34.548Z,2.33
2023-04-02T21:55:36.267Z,1.73
2023-04-02T22:00:38.346Z,2.20
2023-04-02T22:05:41.542Z,2.15
2023-04-02T22:10:45.634Z,1.75
2023-04-02T22:15:48.469Z,2.30
2023-04-02T22:20:54.704Z,1.85
2023-04-02T22:25:59.138Z,1.63
2023-04-02T22:31:21.905Z,2.08
2023-04-02T22:36:25.431Z,2.03
2023-04-02T22:41:32.069Z,1.77
2023-04-02T22:46:34.621Z,1.30
2023-04-02T22:51:36.425Z,2.08
2023-04-02T22:56:39.541Z,1.73
2023-04-02T23:01:41.122Z,1.33
2023-04-02T23:06:42.786Z,1.17
2023-04-02T23:11:44.367Z,1.50
2023-04-02T23:16:45.881Z,1.52
2023-04-02T23:21:48.521Z,1.83
2023-04-02T23:26:49.978Z,1.80
2023-04-02T23:31:51.617Z,1.98
2023-04-02T23:36:53.164Z,1.52
2023-04-02T23:41:54.683Z,1.33
2023-04-02T23:46:56.222Z,1.60
2023-04-02T23:51:58.016Z,1.50
2023-04-02T23:56:59.418Z,1.58
